createdAt,value
2023-03-22T00:01:36.891Z,97607.53
2023-03-22T00:04:04.418Z,97616.03
2023-03-22T00:06:31.855Z,97616.03
2023-03-22T00:08:59.529Z,97623.25
2023-03-22T00:11:27.164Z,97616.41
2023-03-22T00:13:54.898Z,97617.47
2023-03-22T00:16:23.304Z,97611.44
2023-03-22T00:18:53.883Z,97615.97
2023-03-22T00:21:21.409Z,97608.59
2023-03-22T00:23:48.926Z,97613.66
2023-03-22T00:26:18.999Z,97611.84
2023-03-22T00:28:46.664Z,97606.75
2023-03-22T00:31:14.264Z,97611.88
2023-03-22T00:33:41.800Z,97609.97
2023-03-22T00:36:12.469Z,97615.31
2023-03-22T00:38:44.399Z,97601.06
2023-03-22T00:41:15.864Z,97606.41
2023-03-22T00:43:43.548Z,97600.81
2023-03-22T00:46:13.111Z,97598.97
2023-03-22T00:48:41.217Z,97596.28
2023-03-22T00:51:11.138Z,97595.03
2023-03-22T00:53:41.890Z,97600.56
2023-03-22T00:56:10.750Z,97597.47
2023-03-22T00:58:38.231Z,97591.06
2023-03-22T01:01:07.302Z,97591.66
2023-03-22T01:03:34.981Z,97590.81
2023-03-22T01:06:02.802Z,97592.06
2023-03-22T01:08:33.120Z,97580.94
2023-03-22T01:11:01.544Z,97588.53
2023-03-22T01:13:29.859Z,97579.03
2023-03-22T01:15:57.503Z,97581.94
2023-03-22T01:18:24.956Z,97585.22
2023-03-22T01:20:54.121Z,97587.34
2023-03-22T01:23:21.799Z,97580.66
2023-03-22T01:25:50.581Z,97578.59
2023-03-22T01:28:18.026Z,97569.72
2023-03-22T01:30:45.600Z,97573.41
2023-03-22T01:33:13.148Z,97567.59
2023-03-22T01:35:41.056Z,97565.91
2023-03-22T01:38:08.657Z,97565.09
2023-03-22T01:40:39.275Z,97562.81
2023-03-22T01:43:14.234Z,97563.56
2023-03-22T01:45:43.438Z,97560.72
2023-03-22T01:48:16.679Z,97564.97
2023-03-22T01:50:50.574Z,97564.38
2023-03-22T01:53:23.507Z,97555.75
2023-03-22T01:55:52.447Z,97550.34
2023-03-22T01:58:21.372Z,97549.75
2023-03-22T02:00:50.372Z,97545.19
2023-03-22T02:03:25.713Z,97551.53
2023-03-22T02:05:54.875Z,97547.00
2023-03-22T02:08:22.343Z,97542.47
2023-03-22T02:10:49.890Z,97541.88
2023-03-22T02:13:38.838Z,97550.31
2023-03-22T02:16:16.794Z,97543.94
2023-03-22T02:18:57.093Z,97548.88
2023-03-22T02:21:54.574Z,97554.97
2023-03-22T02:24:47.726Z,97547.59
2023-03-22T02:27:28.464Z,97547.19
2023-03-22T02:30:05.009Z,97536.66
2023-03-22T02:33:06.585Z,97547.38
2023-03-22T02:35:47.270Z,97539.56
2023-03-22T02:38:30.319Z,97530.66
2023-03-22T02:41:09.058Z,97534.13
2023-03-22T02:43:39.753Z,97533.13
2023-03-22T02:46:12.285Z,97529.25
2023-03-22T02:48:45.182Z,97529.19
2023-03-22T02:51:19.933Z,97528.75
2023-03-22T02:53:50.476Z,97534.69
2023-03-22T02:56:24.293Z,97536.91
2023-03-22T02:58:54.939Z,97528.28
2023-03-22T03:01:29.251Z,97524.50
2023-03-22T03:04:00.966Z,97522.22
2023-03-22T03:06:33.230Z,97519.94
2023-03-22T03:09:04.924Z,97522.84
2023-03-22T03:11:34.110Z,97524.38
2023-03-22T03:14:01.609Z,97518.03
2023-03-22T03:16:36.466Z,97515.50
2023-03-22T03:19:12.506Z,97514.63
2023-03-22T03:21:51.095Z,97517.69
2023-03-22T03:24:23.776Z,97515.84
2023-03-22T03:26:59.731Z,97518.31
2023-03-22T03:29:33.281Z,97507.13
2023-03-22T03:32:08.132Z,97521.34
2023-03-22T03:34:36.979Z,97515.72
2023-03-22T03:37:08.621Z,97516.28
2023-03-22T03:39:40.501Z,97520.38
2023-03-22T03:42:14.272Z,97523.47
2023-03-22T03:44:42.449Z,97522.59
2023-03-22T03:47:11.326Z,97518.91
2023-03-22T03:49:39.114Z,97523.88
2023-03-22T03:52:06.870Z,97517.47
2023-03-22T03:54:34.501Z,97532.41
2023-03-22T03:57:03.972Z,97533.69
2023-03-22T03:59:32.972Z,97519.47
2023-03-22T04:02:00.486Z,97527.69
2023-03-22T04:04:29.898Z,97530.16
2023-03-22T04:06:59.532Z,97526.63
2023-03-22T04:09:28.724Z,97529.47
2023-03-22T04:11:57.255Z,97526.06
2023-03-22T04:14:25.674Z,97527.56
2023-03-22T04:16:54.928Z,97529.00
2023-03-22T04:19:23.152Z,97533.47
2023-03-22T04:21:53.037Z,97526.19
2023-03-22T04:24:21.428Z,97536.09
2023-03-22T04:26:48.919Z,97539.19
2023-03-22T04:29:16.460Z,97539.09
2023-03-22T04:31:44.117Z,97538.59
2023-03-22T04:34:12.925Z,97534.97
2023-03-22T04:36:41.057Z,97530.84
2023-03-22T04:39:10.921Z,97536.38
2023-03-22T04:41:38.760Z,97527.00
2023-03-22T04:44:07.520Z,97528.84
2023-03-22T04:46:36.584Z,97533.97
2023-03-22T04:49:04.463Z,97527.75
2023-03-22T04:51:33.384Z,97531.25
2023-03-22T04:54:01.102Z,97537.25
2023-03-22T04:56:28.540Z,97531.31
2023-03-22T04:58:56.005Z,97533.28
2023-03-22T05:01:23.484Z,97531.50
2023-03-22T05:03:50.983Z,97535.13
2023-03-22T05:06:18.651Z,97520.56
2023-03-22T05:08:47.435Z,97523.78
2023-03-22T05:11:17.474Z,97517.72
2023-03-22T05:13:45.205Z,97531.28
2023-03-22T05:16:12.868Z,97520.22
2023-03-22T05:18:45.655Z,97522.22
2023-03-22T05:21:15.284Z,97522.22
2023-03-22T05:23:43.134Z,97522.81
2023-03-22T05:26:15.966Z,97523.44
2023-03-22T05:28:44.128Z,97520.59
2023-03-22T05:31:14.582Z,97519.75
2023-03-22T05:33:42.375Z,97512.94
2023-03-22T05:36:11.583Z,97507.78
2023-03-22T05:38:39.231Z,97502.19
2023-03-22T05:41:07.290Z,97506.78
2023-03-22T05:43:36.089Z,97507.41
2023-03-22T05:46:06.289Z,97511.47
2023-03-22T05:48:33.729Z,97513.50
2023-03-22T05:51:03.290Z,97503.00
2023-03-22T05:53:31.737Z,97503.00
2023-03-22T05:56:00.591Z,97502.06
2023-03-22T05:58:28.923Z,97504.56
2023-03-22T06:01:00.881Z,97507.78
2023-03-22T06:03:28.882Z,97497.38
2023-03-22T06:05:56.348Z,97496.72
2023-03-22T06:08:26.520Z,97494.72
2023-03-22T06:10:54.829Z,97497.38
2023-03-22T06:13:22.869Z,97498.00
2023-03-22T06:15:50.333Z,97501.09
2023-03-22T06:18:19.138Z,97498.47
2023-03-22T06:20:46.683Z,97495.72
2023-03-22T06:23:14.130Z,97494.34
2023-03-22T06:25:41.580Z,97498.09
2023-03-22T06:28:09.032Z,97500.19
2023-03-22T06:30:36.528Z,97494.50
2023-03-22T06:33:05.924Z,97502.13
2023-03-22T06:35:34.899Z,97503.09
2023-03-22T06:38:02.357Z,97511.44
2023-03-22T06:40:30.237Z,97506.16
2023-03-22T06:42:57.722Z,97504.66
2023-03-22T06:45:25.134Z,97519.34
2023-03-22T06:47:52.710Z,97504.94
2023-03-22T06:50:20.209Z,97514.25
2023-03-22T06:52:48.975Z,97509.75
2023-03-22T06:55:16.500Z,97514.25
2023-03-22T06:57:43.975Z,97504.47
2023-03-22T07:00:12.775Z,97505.75
2023-03-22T07:02:40.073Z,97505.88
2023-03-22T07:05:08.197Z,97502.59
2023-03-22T07:07:35.687Z,97509.59
2023-03-22T07:10:04.995Z,97505.66
2023-03-22T07:12:32.644Z,97507.84
2023-03-22T07:15:00.269Z,97516.22
2023-03-22T07:17:27.788Z,97512.78
2023-03-22T07:19:55.190Z,97511.06
2023-03-22T07:22:24.643Z,97503.63
2023-03-22T07:24:57.696Z,97502.63
2023-03-22T07:27:27.709Z,97503.44
2023-03-22T07:29:55.180Z,97503.34
2023-03-22T07:32:22.725Z,97503.50
2023-03-22T07:34:50.252Z,97506.63
2023-03-22T07:37:17.695Z,97505.25
2023-03-22T07:39:45.252Z,97506.72
2023-03-22T07:42:12.899Z,97499.63
2023-03-22T07:44:41.963Z,97502.47
2023-03-22T07:47:09.868Z,97505.38
2023-03-22T07:49:37.560Z,97510.03
2023-03-22T07:52:05.463Z,97503.06
2023-03-22T07:54:34.489Z,97505.16
2023-03-22T07:57:02.886Z,97496.94
2023-03-22T07:59:31.199Z,97505.88
2023-03-22T08:02:00.152Z,97504.34
2023-03-22T08:04:27.694Z,97493.53
2023-03-22T08:06:58.539Z,97501.06
2023-03-22T08:09:26.344Z,97504.06
2023-03-22T08:11:54.246Z,97507.44
2023-03-22T08:14:27.486Z,97500.28
2023-03-22T08:17:04.891Z,97503.63
2023-03-22T08:19:33.012Z,97505.47
2023-03-22T08:22:00.996Z,97499.72
2023-03-22T08:24:28.606Z,97506.13
2023-03-22T08:26:56.131Z,97505.09
2023-03-22T08:29:23.742Z,97504.09
2023-03-22T08:31:51.781Z,97504.31
2023-03-22T08:34:20.800Z,97502.03
2023-03-22T08:36:48.640Z,97501.84
2023-03-22T08:39:16.142Z,97513.59
2023-03-22T08:41:43.632Z,97511.34
2023-03-22T08:44:11.281Z,97508.03
2023-03-22T08:46:38.727Z,97508.03
2023-03-22T08:49:06.192Z,97510.09
2023-03-22T08:51:34.979Z,97506.59
2023-03-22T08:54:04.362Z,97503.50
2023-03-22T08:56:32.308Z,97505.34
2023-03-22T08:58:59.783Z,97488.78
2023-03-22T09:01:27.398Z,97494.78
2023-03-22T09:03:54.918Z,97488.13
2023-03-22T09:06:22.362Z,97492.69
2023-03-22T09:08:52.125Z,97495.59
2023-03-22T09:11:20.743Z,97476.53
2023-03-22T09:13:48.128Z,97491.88
2023-03-22T09:16:16.442Z,97479.19
2023-03-22T09:18:44.579Z,97479.22
2023-03-22T09:21:12.211Z,97478.97
2023-03-22T09:23:40.392Z,97481.00
2023-03-22T09:26:11.040Z,97482.47
2023-03-22T09:28:38.649Z,97482.09
2023-03-22T09:31:09.327Z,97479.84
2023-03-22T09:33:38.417Z,97473.28
2023-03-22T09:36:06.531Z,97475.97
2023-03-22T09:38:35.335Z,97469.50
2023-03-22T09:41:06.239Z,97466.63
2023-03-22T09:43:37.720Z,97470.91
2023-03-22T09:46:09.679Z,97466.09
2023-03-22T09:48:41.819Z,97463.28
2023-03-22T09:51:24.339Z,97467.72
2023-03-22T09:53:51.771Z,97451.47
2023-03-22T09:56:24.861Z,97453.13
2023-03-22T09:59:00.882Z,97453.44
2023-03-22T10:01:37.172Z,97467.41
2023-03-22T10:04:26.126Z,97449.72
2023-03-22T10:07:01.602Z,97444.19
2023-03-22T10:09:33.598Z,97450.53
2023-03-22T10:12:09.486Z,97450.28
2023-03-22T10:14:41.836Z,97428.16
2023-03-22T10:17:13.163Z,97430.41
2023-03-22T10:19:50.532Z,97419.91
2023-03-22T10:22:24.944Z,97420.66
2023-03-22T10:24:54.365Z,97422.72
2023-03-22T10:27:23.822Z,97428.47
2023-03-22T10:29:57.745Z,97418.00
2023-03-22T10:32:32.635Z,97419.63
2023-03-22T10:35:00.205Z,97417.97
2023-03-22T10:37:32.360Z,97411.53
2023-03-22T10:40:07.031Z,97417.03
2023-03-22T10:42:39.215Z,97419.78
2023-03-22T10:45:13.085Z,97403.38
2023-03-22T10:47:46.362Z,97390.41
2023-03-22T10:50:18.770Z,97394.16
2023-03-22T10:52:52.889Z,97407.38
2023-03-22T10:55:20.322Z,97394.06
2023-03-22T10:57:57.081Z,97392.31
2023-03-22T11:00:28.644Z,97397.78
2023-03-22T11:03:00.387Z,97380.09
2023-03-22T11:05:30.198Z,97367.34
2023-03-22T11:07:59.070Z,97362.91
2023-03-22T11:10:29.430Z,97398.50
2023-03-22T11:13:12.311Z,97400.41
2023-03-22T11:15:43.135Z,97398.41
2023-03-22T11:18:15.682Z,97406.00
2023-03-22T11:20:53.229Z,97394.00
2023-03-22T11:23:22.218Z,97391.25
2023-03-22T11:25:51.611Z,97385.81
2023-03-22T11:28:21.196Z,97373.97
2023-03-22T11:31:06.002Z,97376.34
2023-03-22T11:33:35.182Z,97376.88
2023-03-22T11:36:04.579Z,97375.91
2023-03-22T11:38:37.853Z,97376.53
2023-03-22T11:41:08.720Z,97354.34
2023-03-22T11:43:38.189Z,97370.75
2023-03-22T11:46:09.375Z,97372.25
2023-03-22T11:48:37.854Z,97370.31
2023-03-22T11:51:09.751Z,97339.63
2023-03-22T11:53:40.403Z,97345.41
2023-03-22T11:56:11.257Z,97341.69
2023-03-22T11:58:59.927Z,97361.19
2023-03-22T12:01:45.317Z,97359.03
2023-03-22T12:04:18.698Z,97357.38
2023-03-22T12:06:46.231Z,97358.72
2023-03-22T12:09:26.005Z,97330.63
2023-03-22T12:11:57.152Z,97330.69
2023-03-22T12:14:27.500Z,97345.19
2023-03-22T12:17:00.753Z,97311.63
2023-03-22T12:19:42.828Z,97322.81
2023-03-22T12:22:13.802Z,97341.16
2023-03-22T12:24:42.908Z,97335.78
2023-03-22T12:27:18.543Z,97333.28
2023-03-22T12:29:52.715Z,97343.63
2023-03-22T12:32:27.109Z,97349.03
2023-03-22T12:35:09.268Z,97343.63
2023-03-22T12:37:47.197Z,97339.28
2023-03-22T12:40:22.805Z,97326.56
2023-03-22T12:43:00.238Z,97322.72
2023-03-22T12:45:29.659Z,97330.97
2023-03-22T12:48:04.759Z,97328.47
2023-03-22T12:50:38.069Z,97324.47
2023-03-22T12:53:06.545Z,97326.13
2023-03-22T12:55:36.614Z,97321.56
2023-03-22T12:58:07.431Z,97321.56
2023-03-22T13:00:43.200Z,97321.75
2023-03-22T13:03:24.327Z,97308.44
2023-03-22T13:06:03.111Z,97294.31
2023-03-22T13:09:04.491Z,97313.56
2023-03-22T13:11:32.095Z,97311.91
2023-03-22T13:13:59.627Z,97309.00
2023-03-22T13:16:51.727Z,97290.84
2023-03-22T13:19:31.384Z,97291.03
2023-03-22T13:22:20.928Z,97289.47
2023-03-22T13:25:07.038Z,97304.38
2023-03-22T13:27:37.805Z,97302.81
2023-03-22T13:30:15.147Z,97296.03
2023-03-22T13:32:52.555Z,97281.13
2023-03-22T13:35:28.191Z,97275.22
2023-03-22T13:38:03.616Z,97292.78
2023-03-22T13:40:36.579Z,97287.91
2023-03-22T13:43:23.372Z,97275.09
2023-03-22T13:46:13.701Z,97278.81
2023-03-22T13:48:48.835Z,97275.53
2023-03-22T13:51:22.510Z,97278.31
2023-03-22T13:54:00.201Z,97276.72
2023-03-22T13:56:52.675Z,97281.16
2023-03-22T13:59:21.674Z,97279.78
2023-03-22T14:01:52.378Z,97276.53
2023-03-22T14:04:26.549Z,97270.88
2023-03-22T14:06:59.842Z,97269.22
2023-03-22T14:09:32.267Z,97265.03
2023-03-22T14:12:06.324Z,97279.47
2023-03-22T14:14:40.497Z,97258.75
2023-03-22T14:17:17.632Z,97275.44
2023-03-22T14:19:45.752Z,97261.56
